createdAt,value
2023-04-26T00:02:18.323Z,0.35
2023-04-26T00:04:46.405Z,1.00
2023-04-26T00:07:13.866Z,0.43
2023-04-26T00:09:42.131Z,0.91
2023-04-26T00:12:08.740Z,0.82
2023-04-26T00:14:35.365Z,0.86
2023-04-26T00:17:04.345Z,0.27
2023-04-26T00:19:30.865Z,0.85
2023-04-26T00:21:57.622Z,0.91
2023-04-26T00:24:24.142Z,0.29
2023-04-26T00:26:53.899Z,0.61
2023-04-26T00:29:20.564Z,0.74
2023-04-26T00:31:47.508Z,0.70
2023-04-26T00:34:14.358Z,0.64
2023-04-26T00:36:40.910Z,0.65
2023-04-26T00:39:08.746Z,0.58
2023-04-26T00:41:35.321Z,0.60
2023-04-26T00:44:02.020Z,0.62
2023-04-26T00:46:29.346Z,0.70
2023-04-26T00:48:56.141Z,0.59
2023-04-26T00:51:22.712Z,0.50
2023-04-26T00:53:49.552Z,0.21
2023-04-26T00:56:16.493Z,0.54
2023-04-26T00:58:43.366Z,-0.35
2023-04-26T01:01:10.068Z,0.30
2023-04-26T01:03:37.237Z,-0.03
2023-04-26T01:06:04.126Z,0.37
2023-04-26T01:08:30.692Z,0.42
2023-04-26T01:10:58.932Z,-0.15
2023-04-26T01:13:26.206Z,0.52
2023-04-26T01:15:54.707Z,0.56
2023-04-26T01:18:21.408Z,-0.18
2023-04-26T01:20:48.443Z,0.42
2023-04-26T01:23:14.962Z,0.35
2023-04-26T01:25:41.570Z,0.52
2023-04-26T01:28:09.288Z,-0.14
2023-04-26T01:30:36.153Z,0.26
2023-04-26T01:33:03.187Z,0.40
2023-04-26T01:35:29.874Z,0.25
2023-04-26T01:37:56.496Z,0.49
2023-04-26T01:40:23.367Z,0.41
2023-04-26T01:42:49.900Z,0.36
2023-04-26T01:45:17.448Z,-0.19
2023-04-26T01:48:02.340Z,0.36
2023-04-26T01:50:32.057Z,0.35
2023-04-26T01:52:58.744Z,0.14
2023-04-26T01:55:25.276Z,-0.46
2023-04-26T01:57:51.925Z,0.41
2023-04-26T02:00:18.913Z,0.35
2023-04-26T02:02:48.964Z,-0.39
2023-04-26T02:05:15.674Z,0.36
2023-04-26T02:07:42.298Z,0.39
2023-04-26T02:10:09.142Z,0.20
2023-04-26T02:12:35.846Z,-0.25
2023-04-26T02:15:02.579Z,0.34
2023-04-26T02:17:29.221Z,-0.06
2023-04-26T02:19:56.706Z,-0.27
2023-04-26T02:22:25.074Z,0.15
2023-04-26T02:24:52.800Z,0.23
2023-04-26T02:27:20.159Z,0.22
2023-04-26T02:29:46.908Z,0.24
2023-04-26T02:32:14.226Z,0.11
2023-04-26T02:34:41.185Z,0.19
2023-04-26T02:37:08.973Z,0.23
2023-04-26T02:39:36.631Z,0.14
2023-04-26T02:42:08.450Z,0.28
2023-04-26T02:44:35.039Z,0.18
2023-04-26T02:47:02.551Z,-0.05
2023-04-26T02:49:30.486Z,0.23
2023-04-26T02:51:57.025Z,0.24
2023-04-26T02:54:24.114Z,0.26
2023-04-26T02:56:51.774Z,0.26
2023-04-26T02:59:18.271Z,0.02
2023-04-26T03:01:45.229Z,0.29
2023-04-26T03:04:11.880Z,-0.14
2023-04-26T03:06:39.140Z,0.09
2023-04-26T03:09:05.933Z,0.21
2023-04-26T03:11:32.814Z,0.18
2023-04-26T03:13:59.362Z,0.07
2023-04-26T03:16:27.873Z,-0.09
2023-04-26T03:18:54.756Z,-0.18
2023-04-26T03:21:21.901Z,0.12
2023-04-26T03:23:48.577Z,0.11
2023-04-26T03:26:15.880Z,-0.47
2023-04-26T03:28:42.593Z,-0.04
2023-04-26T03:31:09.271Z,-0.63
2023-04-26T03:33:35.991Z,-0.23
2023-04-26T03:36:02.598Z,-0.23
2023-04-26T03:38:29.118Z,-0.12
2023-04-26T03:40:55.774Z,-0.06
2023-04-26T03:43:23.353Z,-0.16
2023-04-26T03:45:50.448Z,-0.09
2023-04-26T03:48:17.249Z,-0.15
2023-04-26T03:50:45.986Z,-0.16
2023-04-26T03:53:13.009Z,-0.29
2023-04-26T03:55:39.744Z,-2.21
2023-04-26T03:58:08.097Z,-0.45
2023-04-26T04:00:37.563Z,-0.61
2023-04-26T04:03:05.451Z,-0.15
2023-04-26T04:05:32.576Z,-0.22
2023-04-26T04:07:59.573Z,-0.31
2023-04-26T04:10:26.351Z,-0.18
2023-04-26T04:12:54.104Z,-0.22
2023-04-26T04:15:21.208Z,-0.20
2023-04-26T04:17:48.784Z,-0.24
2023-04-26T04:20:15.574Z,-0.14
2023-04-26T04:22:42.657Z,-0.37
2023-04-26T04:25:13.759Z,-0.37
2023-04-26T04:27:42.588Z,-0.59
2023-04-26T04:30:09.916Z,-0.11
2023-04-26T04:32:36.966Z,-0.09
2023-04-26T04:35:03.692Z,0.06
2023-04-26T04:37:33.526Z,-0.08
2023-04-26T04:40:00.767Z,-0.68
2023-04-26T04:42:28.237Z,0.20
2023-04-26T04:44:57.501Z,0.18
2023-04-26T04:47:25.732Z,-0.22
2023-04-26T04:49:53.851Z,0.33
2023-04-26T04:52:23.704Z,0.28
2023-04-26T04:54:50.357Z,0.32
2023-04-26T04:57:17.057Z,0.02
2023-04-26T04:59:45.387Z,0.65
2023-04-26T05:02:12.452Z,0.79
2023-04-26T05:04:39.393Z,0.27
2023-04-26T05:07:06.719Z,0.80
2023-04-26T05:09:34.429Z,0.87
2023-04-26T05:12:01.549Z,1.01
2023-04-26T05:14:29.878Z,0.64
2023-04-26T05:16:56.649Z,1.29
2023-04-26T05:19:23.377Z,1.39
2023-04-26T05:21:50.047Z,1.58
2023-04-26T05:24:16.862Z,1.77
2023-04-26T05:26:43.777Z,1.58
2023-04-26T05:29:29.998Z,2.10
2023-04-26T05:32:22.483Z,2.25
2023-04-26T05:34:57.073Z,2.59
2023-04-26T05:37:23.622Z,2.83
2023-04-26T05:39:51.004Z,2.96
2023-04-26T05:42:18.183Z,3.38
2023-04-26T05:44:45.088Z,3.64
2023-04-26T05:47:12.383Z,3.87
2023-04-26T05:49:38.934Z,4.16
2023-04-26T05:52:05.609Z,4.33
2023-04-26T05:54:32.292Z,4.09
2023-04-26T05:56:59.344Z,4.28
2023-04-26T05:59:28.122Z,4.79
2023-04-26T06:01:54.813Z,4.83
2023-04-26T06:04:21.550Z,5.14
2023-04-26T06:07:00.703Z,5.17
2023-04-26T06:09:27.394Z,5.33
2023-04-26T06:11:53.979Z,5.44
2023-04-26T06:14:29.990Z,5.43
2023-04-26T06:16:59.307Z,5.51
2023-04-26T06:19:27.603Z,5.02
2023-04-26T06:21:55.393Z,5.31
2023-04-26T06:24:24.983Z,5.41
2023-04-26T06:26:52.022Z,5.51
2023-04-26T06:29:18.671Z,5.77
2023-04-26T06:31:46.419Z,6.00
2023-04-26T06:34:14.707Z,6.67
2023-04-26T06:36:41.663Z,6.62
2023-04-26T06:39:08.819Z,7.03
2023-04-26T06:41:35.570Z,7.73
2023-04-26T06:44:02.281Z,7.74
2023-04-26T06:46:31.229Z,8.02
2023-04-26T06:48:57.836Z,8.81
2023-04-26T06:51:25.145Z,9.42
2023-04-26T06:53:52.846Z,9.76
2023-04-26T06:56:19.692Z,10.22
2023-04-26T06:59:04.038Z,9.94
2023-04-26T07:01:33.727Z,9.92
2023-04-26T07:04:03.287Z,10.51
2023-04-26T07:06:34.055Z,10.55
2023-04-26T07:09:02.499Z,10.46
2023-04-26T07:11:29.566Z,10.85
2023-04-26T07:13:56.913Z,10.96
2023-04-26T07:16:23.885Z,10.69
2023-04-26T07:18:51.696Z,11.29
2023-04-26T07:21:18.388Z,11.07
2023-04-26T07:23:45.045Z,10.90
2023-04-26T07:26:11.904Z,10.51
2023-04-26T07:28:38.413Z,11.27
2023-04-26T07:31:07.831Z,11.28
2023-04-26T07:33:35.639Z,11.81
2023-04-26T07:36:02.265Z,11.44
2023-04-26T07:38:28.759Z,11.63
2023-04-26T07:40:55.779Z,11.32
2023-04-26T07:43:23.311Z,11.93
2023-04-26T07:45:49.880Z,11.89
2023-04-26T07:48:17.196Z,11.96
2023-04-26T07:50:43.937Z,12.17
2023-04-26T07:53:10.556Z,11.49
2023-04-26T07:55:37.628Z,12.13
2023-04-26T07:58:04.499Z,11.77
2023-04-26T08:00:33.033Z,12.35
2023-04-26T08:02:59.767Z,12.21
2023-04-26T08:05:27.802Z,12.24
2023-04-26T08:07:54.688Z,12.49
2023-04-26T08:10:21.473Z,12.19
2023-04-26T08:12:48.091Z,12.10
2023-04-26T08:15:14.900Z,11.62
2023-04-26T08:17:41.740Z,11.85
2023-04-26T08:20:09.814Z,12.16
2023-04-26T08:22:36.573Z,11.57
2023-04-26T08:25:04.622Z,11.31
2023-04-26T08:27:31.864Z,11.12
2023-04-26T08:29:58.493Z,11.31
2023-04-26T08:32:25.069Z,11.53
2023-04-26T08:34:51.875Z,11.97
2023-04-26T08:37:18.445Z,12.13
2023-04-26T08:39:45.019Z,12.70
2023-04-26T08:42:16.669Z,12.92
2023-04-26T08:44:44.779Z,12.89
2023-04-26T08:47:45.438Z,12.97
2023-04-26T08:50:15.098Z,13.19
2023-04-26T08:52:42.814Z,13.00
2023-04-26T08:55:10.726Z,13.45
2023-04-26T08:57:38.128Z,13.29
2023-04-26T09:00:06.527Z,12.73
2023-04-26T09:02:34.506Z,12.78
2023-04-26T09:05:01.407Z,12.39
2023-04-26T09:07:33.779Z,12.00
2023-04-26T09:10:00.985Z,12.29
2023-04-26T09:12:27.656Z,12.51
2023-04-26T09:14:54.351Z,12.60
2023-04-26T09:17:32.259Z,13.10
2023-04-26T09:20:00.689Z,12.61
2023-04-26T09:22:37.476Z,13.10
2023-04-26T09:25:07.109Z,13.12
2023-04-26T09:27:39.336Z,13.60
2023-04-26T09:30:20.757Z,14.33
2023-04-26T09:32:58.005Z,14.27
2023-04-26T09:35:41.843Z,15.38
2023-04-26T09:38:12.671Z,15.80
2023-04-26T09:40:50.593Z,16.28
2023-04-26T09:43:19.770Z,16.52
2023-04-26T09:45:55.774Z,16.62
2023-04-26T09:48:34.942Z,17.24
2023-04-26T09:51:04.591Z,18.31
2023-04-26T09:53:39.464Z,18.05
2023-04-26T09:56:13.411Z,17.97
2023-04-26T09:59:00.735Z,16.95
2023-04-26T10:01:29.868Z,17.14
2023-04-26T10:03:57.699Z,17.06
2023-04-26T10:06:25.167Z,17.16
2023-04-26T10:08:52.019Z,16.53
2023-04-26T10:11:18.852Z,16.14
2023-04-26T10:13:45.641Z,15.24
2023-04-26T10:16:12.245Z,15.35
2023-04-26T10:18:39.182Z,15.41
2023-04-26T10:21:12.769Z,15.48
2023-04-26T10:23:40.881Z,14.91
2023-04-26T10:26:07.747Z,14.90
2023-04-26T10:29:02.609Z,15.49
2023-04-26T10:32:10.673Z,15.98
2023-04-26T10:34:37.776Z,15.86
2023-04-26T10:37:14.796Z,15.82
2023-04-26T10:39:43.584Z,16.88
2023-04-26T10:42:27.409Z,17.96
2023-04-26T10:44:56.178Z,19.27
2023-04-26T10:47:35.006Z,19.31
2023-04-26T10:50:12.049Z,20.03
2023-04-26T10:53:05.125Z,18.71
2023-04-26T10:55:38.487Z,18.18
2023-04-26T10:58:46.299Z,17.12
2023-04-26T11:01:21.166Z,16.99
2023-04-26T11:04:14.219Z,16.44
2023-04-26T11:06:49.596Z,15.82
2023-04-26T11:09:41.709Z,15.75
2023-04-26T11:12:13.909Z,15.46
2023-04-26T11:14:45.710Z,14.89
2023-04-26T11:17:13.154Z,14.76
2023-04-26T11:19:41.396Z,14.80
2023-04-26T11:22:08.572Z,15.26
2023-04-26T11:24:36.736Z,15.27
2023-04-26T11:27:11.876Z,15.02
2023-04-26T11:29:39.149Z,14.68
2023-04-26T11:32:06.060Z,14.60
2023-04-26T11:34:38.111Z,14.46
2023-04-26T11:37:06.256Z,14.10
2023-04-26T11:39:36.930Z,14.37
2023-04-26T11:42:07.713Z,14.04
2023-04-26T11:44:34.798Z,13.94
2023-04-26T11:47:04.026Z,13.47
2023-04-26T11:49:32.286Z,13.76
2023-04-26T11:51:59.396Z,13.88
2023-04-26T11:54:37.597Z,13.84
2023-04-26T11:57:17.154Z,13.82
2023-04-26T11:59:44.857Z,14.10
2023-04-26T12:02:12.065Z,14.41
2023-04-26T12:04:42.416Z,14.58
2023-04-26T12:07:09.403Z,14.67
2023-04-26T12:09:41.194Z,14.87
2023-04-26T12:12:08.249Z,15.07
2023-04-26T12:14:39.580Z,14.66
2023-04-26T12:17:06.824Z,15.20
2023-04-26T12:19:37.333Z,14.52
2023-04-26T12:22:05.788Z,15.10
2023-04-26T12:24:34.599Z,15.17
2023-04-26T12:27:02.977Z,15.15
2023-04-26T12:29:31.861Z,14.83
2023-04-26T12:31:59.782Z,14.88
2023-04-26T12:34:26.547Z,14.64
2023-04-26T12:36:53.129Z,14.57
2023-04-26T12:39:19.719Z,14.63
2023-04-26T12:41:46.620Z,14.71
2023-04-26T12:44:14.470Z,14.26
2023-04-26T12:46:41.181Z,13.52
2023-04-26T12:49:07.872Z,13.32
2023-04-26T12:51:34.445Z,13.82
2023-04-26T12:54:01.067Z,14.30
2023-04-26T12:56:29.484Z,14.86
2023-04-26T12:58:56.224Z,14.99
2023-04-26T13:01:22.942Z,15.64
2023-04-26T13:03:49.819Z,16.70
2023-04-26T13:06:16.728Z,17.16
2023-04-26T13:08:43.430Z,17.51
2023-04-26T13:11:10.032Z,17.46
2023-04-26T13:13:43.622Z,17.29
2023-04-26T13:16:12.552Z,17.10
2023-04-26T13:18:39.917Z,17.38
2023-04-26T13:21:06.772Z,17.86
2023-04-26T13:23:33.276Z,18.30
2023-04-26T13:25:59.956Z,18.28
2023-04-26T13:28:26.653Z,18.12
2023-04-26T13:30:55.698Z,18.23
2023-04-26T13:33:22.348Z,18.54
2023-04-26T13:35:48.968Z,18.99
2023-04-26T13:38:16.478Z,18.66
2023-04-26T13:40:43.897Z,19.27
2023-04-26T13:43:10.628Z,20.46
2023-04-26T13:45:37.306Z,21.58
2023-04-26T13:48:04.132Z,22.39
2023-04-26T13:50:31.479Z,22.76
2023-04-26T13:52:58.160Z,21.88
2023-04-26T13:55:25.611Z,19.70
2023-04-26T13:57:52.174Z,18.57
2023-04-26T14:00:19.186Z,19.13
2023-04-26T14:02:47.410Z,19.42
2023-04-26T14:05:14.379Z,21.26
2023-04-26T14:07:44.405Z,22.83
2023-04-26T14:10:12.143Z,23.63
2023-04-26T14:12:39.143Z,22.78
2023-04-26T14:15:06.599Z,22.50
2023-04-26T14:17:33.643Z,21.90
2023-04-26T14:20:00.695Z,20.35
2023-04-26T14:22:27.705Z,18.79
2023-04-26T14:24:54.300Z,18.04
2023-04-26T14:27:21.007Z,16.76
2023-04-26T14:29:47.654Z,16.52
2023-04-26T14:32:14.208Z,16.31
2023-04-26T14:34:40.885Z,15.27
2023-04-26T14:37:07.750Z,15.07
2023-04-26T14:39:34.506Z,15.36
2023-04-26T14:42:01.739Z,14.97
2023-04-26T14:44:28.297Z,14.74
2023-04-26T14:46:54.830Z,14.44
2023-04-26T14:49:21.319Z,14.68
2023-04-26T14:51:47.980Z,14.32
2023-04-26T14:54:15.464Z,14.13
2023-04-26T14:56:42.182Z,13.86
2023-04-26T14:59:08.727Z,13.67
2023-04-26T15:01:35.483Z,13.78
2023-04-26T15:04:02.201Z,13.31
2023-04-26T15:06:30.698Z,13.84
2023-04-26T15:08:57.431Z,13.64
2023-04-26T15:11:24.003Z,14.20
2023-04-26T15:13:50.553Z,14.34
2023-04-26T15:16:17.267Z,13.82
2023-04-26T15:18:44.156Z,14.48
2023-04-26T15:21:18.979Z,14.32
2023-04-26T15:23:45.592Z,13.99
2023-04-26T15:26:12.172Z,14.16
2023-04-26T15:28:38.949Z,13.37
2023-04-26T15:31:08.730Z,13.91
2023-04-26T15:33:35.615Z,13.91
2023-04-26T15:36:02.450Z,13.38
2023-04-26T15:38:29.108Z,13.67
2023-04-26T15:40:55.788Z,13.48
2023-04-26T15:43:22.369Z,13.54
2023-04-26T15:45:49.580Z,13.58
2023-04-26T15:48:16.436Z,13.62
2023-04-26T15:50:43.090Z,13.79
2023-04-26T15:53:09.992Z,14.06
2023-04-26T15:55:36.749Z,13.52
2023-04-26T15:58:03.511Z,13.78
2023-04-26T16:00:31.615Z,13.88
2023-04-26T16:02:58.339Z,14.22
2023-04-26T16:05:25.773Z,14.17
2023-04-26T16:07:52.422Z,14.20
2023-04-26T16:10:19.124Z,14.01
2023-04-26T16:12:45.710Z,14.56
2023-04-26T16:15:12.339Z,14.48
2023-04-26T16:17:39.355Z,14.06
2023-04-26T16:20:07.986Z,14.45
2023-04-26T16:22:35.757Z,14.14
2023-04-26T16:25:04.041Z,14.08
2023-04-26T16:27:30.639Z,13.71
2023-04-26T16:29:57.542Z,13.46
2023-04-26T16:32:26.299Z,13.47
2023-04-26T16:34:53.181Z,13.29
2023-04-26T16:37:19.881Z,13.42
2023-04-26T16:39:46.552Z,13.50
2023-04-26T16:42:13.131Z,13.38
2023-04-26T16:44:40.736Z,13.24
2023-04-26T16:47:07.328Z,13.34
2023-04-26T16:49:34.196Z,13.11
2023-04-26T16:52:01.705Z,13.15
2023-04-26T16:54:28.431Z,12.94
2023-04-26T16:56:55.085Z,12.97
2023-04-26T16:59:21.674Z,12.53
2023-04-26T17:01:48.342Z,12.47
2023-04-26T17:04:15.106Z,12.43
2023-04-26T17:06:41.709Z,12.44
2023-04-26T17:09:08.584Z,11.69
2023-04-26T17:11:37.239Z,11.47
2023-04-26T17:14:04.650Z,12.02
2023-04-26T17:16:31.680Z,11.91
2023-04-26T17:18:58.552Z,11.90
2023-04-26T17:21:26.156Z,11.93
2023-04-26T17:23:52.751Z,11.96
2023-04-26T17:26:19.372Z,11.46
2023-04-26T17:28:46.436Z,11.63
2023-04-26T17:31:13.206Z,11.36
2023-04-26T17:33:39.761Z,11.26
2023-04-26T17:36:06.550Z,11.44
2023-04-26T17:38:33.202Z,11.52
2023-04-26T17:41:00.093Z,11.33
2023-04-26T17:43:26.785Z,10.83
2023-04-26T17:45:53.434Z,11.34
2023-04-26T17:48:20.155Z,11.12
2023-04-26T17:50:46.881Z,11.14
2023-04-26T17:53:13.507Z,10.58
2023-04-26T17:55:40.511Z,10.56
2023-04-26T17:58:07.060Z,10.91
2023-04-26T18:00:33.967Z,10.73
2023-04-26T18:03:03.014Z,10.78
2023-04-26T18:05:29.803Z,10.54
2023-04-26T18:07:56.555Z,10.61
2023-04-26T18:10:23.249Z,10.05
2023-04-26T18:12:49.873Z,9.87
2023-04-26T18:15:16.392Z,10.26
2023-04-26T18:17:43.584Z,10.19
2023-04-26T18:20:12.942Z,9.95
2023-04-26T18:22:39.887Z,9.54
2023-04-26T18:25:06.807Z,9.94
2023-04-26T18:27:34.696Z,9.95
2023-04-26T18:30:01.349Z,9.92
2023-04-26T18:32:27.970Z,9.85
2023-04-26T18:34:54.660Z,9.80
2023-04-26T18:37:21.450Z,9.84
2023-04-26T18:39:48.764Z,9.86
2023-04-26T18:42:15.643Z,9.36
2023-04-26T18:44:42.265Z,9.05
2023-04-26T18:47:08.886Z,9.51
2023-04-26T18:49:42.057Z,9.56
2023-04-26T18:52:11.113Z,9.60
2023-04-26T18:54:38.864Z,9.52
2023-04-26T18:57:05.601Z,9.37
2023-04-26T18:59:32.449Z,9.31
2023-04-26T19:01:59.087Z,8.77
2023-04-26T19:04:26.373Z,9.12
2023-04-26T19:06:53.228Z,8.70
2023-04-26T19:09:21.645Z,9.23
2023-04-26T19:11:48.183Z,9.11
2023-04-26T19:14:14.753Z,8.97
2023-04-26T19:16:41.447Z,8.50
2023-04-26T19:19:08.033Z,9.02
2023-04-26T19:21:35.061Z,8.90
2023-04-26T19:24:01.565Z,8.84
2023-04-26T19:26:28.108Z,8.71
2023-04-26T19:28:55.799Z,8.90
2023-04-26T19:31:22.859Z,8.86
2023-04-26T19:33:49.500Z,8.24
2023-04-26T19:36:16.051Z,8.60
2023-04-26T19:38:42.658Z,8.38
2023-04-26T19:41:09.204Z,8.68
2023-04-26T19:43:35.839Z,8.55
2023-04-26T19:46:10.986Z,8.50
2023-04-26T19:48:37.641Z,8.37
2023-04-26T19:51:04.261Z,8.40
2023-04-26T19:53:30.896Z,8.52
2023-04-26T19:55:57.435Z,8.45
2023-04-26T19:58:24.537Z,8.43
2023-04-26T20:00:51.275Z,8.30
2023-04-26T20:03:18.049Z,8.20
2023-04-26T20:05:44.662Z,7.83
2023-04-26T20:08:11.189Z,8.14
2023-04-26T20:10:37.879Z,8.09
2023-04-26T20:13:04.516Z,8.18
2023-04-26T20:15:33.016Z,7.50
2023-04-26T20:18:02.195Z,8.04
2023-04-26T20:20:29.208Z,7.92
2023-04-26T20:22:55.784Z,7.51
2023-04-26T20:25:22.484Z,7.41
2023-04-26T20:27:49.090Z,7.77
2023-04-26T20:30:15.873Z,7.33
2023-04-26T20:32:42.998Z,7.58
2023-04-26T20:35:10.042Z,7.66
2023-04-26T20:37:36.733Z,7.51
2023-04-26T20:40:03.832Z,7.70
2023-04-26T20:42:30.451Z,7.66
2023-04-26T20:44:57.404Z,7.34
2023-04-26T20:47:24.515Z,7.37
2023-04-26T20:49:51.101Z,7.29
2023-04-26T20:52:17.649Z,6.76
2023-04-26T20:54:44.187Z,7.31
2023-04-26T20:57:10.964Z,7.21
2023-04-26T20:59:37.781Z,7.04
2023-04-26T21:02:05.015Z,6.81
2023-04-26T21:04:31.952Z,6.78
2023-04-26T21:06:58.681Z,5.17
2023-04-26T21:09:25.399Z,6.40
2023-04-26T21:11:51.998Z,5.88
2023-04-26T21:14:18.617Z,6.14
2023-04-26T21:16:45.253Z,6.07
2023-04-26T21:19:11.998Z,5.93
2023-04-26T21:21:38.663Z,5.77
2023-04-26T21:24:05.498Z,5.08
2023-04-26T21:26:32.144Z,5.69
2023-04-26T21:28:58.790Z,5.41
2023-04-26T21:31:25.723Z,5.27
2023-04-26T21:33:52.686Z,5.09
2023-04-26T21:36:19.368Z,5.05
2023-04-26T21:38:45.968Z,5.20
2023-04-26T21:41:12.814Z,4.76
2023-04-26T21:43:39.437Z,4.77
2023-04-26T21:46:07.880Z,4.72
2023-04-26T21:48:34.967Z,4.91
2023-04-26T21:51:01.721Z,4.90
2023-04-26T21:53:28.651Z,4.72
2023-04-26T21:55:55.586Z,4.69
2023-04-26T21:58:23.214Z,4.98
2023-04-26T22:00:50.241Z,4.83
2023-04-26T22:03:17.293Z,4.74
2023-04-26T22:05:44.223Z,5.00
2023-04-26T22:08:10.904Z,4.57
2023-04-26T22:10:37.547Z,4.31
2023-04-26T22:13:05.168Z,4.95
2023-04-26T22:15:32.195Z,4.93
2023-04-26T22:17:59.077Z,4.45
2023-04-26T22:20:26.465Z,4.83
2023-04-26T22:22:53.587Z,4.63
2023-04-26T22:25:20.343Z,4.63
2023-04-26T22:27:47.014Z,4.70
2023-04-26T22:30:24.684Z,4.84
2023-04-26T22:32:54.688Z,4.99
2023-04-26T22:35:23.137Z,4.85
2023-04-26T22:37:49.925Z,4.57
2023-04-26T22:40:17.214Z,4.42
2023-04-26T22:42:43.855Z,4.76
2023-04-26T22:45:11.948Z,4.90
2023-04-26T22:47:39.721Z,4.87
2023-04-26T22:50:07.499Z,4.37
2023-04-26T22:52:35.068Z,4.97
2023-04-26T22:55:01.953Z,4.74
2023-04-26T22:57:29.669Z,4.76
2023-04-26T22:59:56.722Z,4.04
2023-04-26T23:02:23.815Z,4.74
2023-04-26T23:04:50.594Z,4.79
2023-04-26T23:07:17.257Z,4.65
2023-04-26T23:09:43.902Z,4.70
2023-04-26T23:12:10.616Z,4.81
2023-04-26T23:14:38.242Z,4.73
2023-04-26T23:17:05.696Z,4.76
2023-04-26T23:19:33.121Z,4.72
2023-04-26T23:22:00.013Z,4.78
2023-04-26T23:24:27.755Z,4.11
2023-04-26T23:26:54.302Z,4.40
2023-04-26T23:29:20.955Z,4.67
2023-04-26T23:31:47.672Z,4.57
2023-04-26T23:34:14.349Z,4.43
2023-04-26T23:36:42.044Z,4.70
2023-04-26T23:39:08.926Z,4.72
2023-04-26T23:41:35.791Z,4.52
2023-04-26T23:44:02.459Z,4.49
2023-04-26T23:46:29.168Z,4.65
2023-04-26T23:48:55.891Z,4.72
2023-04-26T23:51:23.541Z,4.62
2023-04-26T23:53:50.120Z,4.64
2023-04-26T23:56:16.709Z,4.09
2023-04-26T23:58:43.350Z,4.57
